• Join FlightAware (Why Join?)
  • Login
  • US Flag 
11:26AM EDT


 

Airport Tracker/Info


-or-


 

Live Flight TrackerFlight Track Log ✈ GJS6221 ✈ 28-Apr-2013 ✈ KLGA - KBTV

Flight Track Log - Related Links

Times and Time Zones

All times are in EDT time to prevent confusion due to time zone crossing. See the GJS6221 flight status page for this flight to view local times or setup timezone preferences in your user account.

Time Position Orientation Groundspeed Altitude Reporting Facility
EDT Latitude Longitude Course Direction KTS MPH feet Rate Location/Type
12:42PM 40.7500 -73.8333 143° Southeast 151 174 1,700  Level New York TRACON
12:43PM 40.7167 -73.8000 143° Southeast 214 246 4,000 2,400 Climbing New York TRACON
12:46PM 40.8575 -73.6831 32° Northeast 240 276 9,900 1,620 Climbing Boston Center
12:47PM 40.9331 -73.6406 23° Northeast 265 305 10,000 720 Climbing Boston Center
12:48PM 41.0233 -73.5872 24° Northeast 295 339 11,500 2,040 Climbing Boston Center
12:49PM 41.1175 -73.5311 24° Northeast 325 374 14,100 2,400 Climbing Boston Center
12:50PM 41.1972 -73.4856 23° Northeast 338 389 16,300 2,100 Climbing Boston Center
12:51PM 41.2978 -73.4264 24° Northeast 343 395 18,300 1,740 Climbing Boston Center
12:52PM 41.3917 -73.4169 North 348 400 19,800 1,500 Climbing Boston Center
12:53PM 41.4958 -73.4100 North 363 418 21,400 1,500 Climbing Boston Center
12:54PM 41.6125 -73.4119 359° North 369 425 22,900 1,320 Climbing Boston Center
12:55PM 41.7253 -73.4053 North 390 449 24,400 1,260 Climbing Boston Center
12:56PM 41.8400 -73.4014 North 403 464 25,800 1,260 Climbing Boston Center
12:57PM 41.9794 -73.3953 North 403 464 27,000 600 Climbing Boston Center
12:58PM 42.0900 -73.3828 North 409 471 27,000  Level Boston Center
12:59PM 42.2069 -73.3761 North 422 486 27,000  Level Boston Center
01:00PM 42.3236 -73.3667 North 422 486 27,000  Level Boston Center
01:01PM 42.4467 -73.3714 358° North 409 471 27,000  Level Boston Center
01:02PM 42.5633 -73.3675 North 409 471 27,000  Level Boston Center
01:03PM 42.6758 -73.3608 North 409 471 27,000  Level Boston Center
01:04PM 42.7928 -73.3567 North 409 471 27,000  Level Boston Center
01:05PM 42.9094 -73.3500 North 409 471 27,000 -480 Level Boston Center
01:06PM 43.0325 -73.3433 North 416 479 26,100 -960 Descending Boston Center
01:07PM 43.1492 -73.3281 North 422 486 25,100 -1,020 Descending Boston Center
01:08PM 43.2661 -73.3125 North 422 486 24,100 -1,020 Descending Boston Center
01:09PM 43.3767 -73.2969 North 416 479 23,100 -1,680 Descending Boston Center
01:10PM 43.4769 -73.2842 North 386 444 20,800 -2,400 Descending Boston Center
01:11PM 43.5769 -73.2683 North 371 427 18,300 -2,400 Descending Boston Center
01:12PM 43.6667 -73.2608 North 360 414 16,100 -2,400 Descending Boston Center
01:13PM 43.7667 -73.2450 North 360 414 13,600 -2,460 Descending Boston Center
01:14PM 43.8669 -73.2319 North 360 414 11,200 -1,320 Descending Boston Center
01:15PM 43.9503 -73.2244 North 351 404 11,000 -960 Descending Boston Center
01:16PM 44.0628 -73.2086 North 296 341 9,100 -1,560 Descending Boston Center
01:17PM 44.1419 -73.2328 348° North 282 325 7,600 -1,500 Descending Boston Center
01:18PM 44.2147 -73.2597 345° North 277 319 6,100 -1,500 Descending Boston Center
01:19PM 44.2875 -73.2869 345° North 272 313 4,600 -1,320 Descending Boston Center
01:20PM 44.3600 -73.3111 347° North 277 319 3,500 -1,080 Descending Boston Center
01:21PM 44.4267 -73.3267 351° North 260 299 2,500 -600 Descending Boston Center
01:22PM 44.4831 -73.3131 10° North 203 234 2,300 -300 Descending Boston Center
01:23PM 44.5064 -73.2550 61° Northeast 166 191 1,900 -720 Descending Boston Center
01:24PM 44.5006 -73.1997 98° East 140 161 900 -780 Descending Boston Center
01:25PM 44.4758 -73.1586 130° Southeast 134 154 400 -300 Descending Boston Center
01:26PM 44.4636 -73.1178 113° Southeast 134 154 400  Level Boston Center